Terminal Aerodrome Forecast
Issued by NWS

Home | Current Version | Previous Version | Text Only | Print | Product List | Glossary On
Versions: 1 2 3 4 5 6 7 8 9 10 11 12 13 14 15 16 17 18 19
000
FTUS41 KBTV 281741
TAFMPV
TAF
KMPV 281741Z 2818/2918 21008G16KT P6SM SCT100
     FM290000 20006KT P6SM SCT050 BKN100 BKN150
      TEMPO 2900/2902 2SM TSRA BR OVC040CB
     FM290500 VRB03KT 5SM BR SCT070 BKN250
     FM290700 VRB03KT 1/4SM FG VV001
     FM291200 31007KT P6SM SCT050 SCT250=

USA.gov is the U.S. government's official web portal to all federal, state and local government web resources and services.